Main page
METAR-TAF:

METAR-TAF

Airports :

Airlake Airport

Minneapolis / Lakeville, Minnesota, United States

latitude: 44-37-40N, longitude: 093-13-41W, elevation: 961 ft

Current weather observation

The report was made 13 minutes ago, at 22:15 UTC
Calm wind
Temperature 12°F
Humidity 51%
Pressure 30.65 in. Hg
Visibility: 10 miles

METAR: KLVN 202215Z AUTO 00000KT 10SM M11/M19 A3065 RMK AO2

Time: 16:28 (22:28 UTC)


TAF: missing

Weather observations and forecasts of more than 4000 airports (METAR and TAF reports).

The available stations are represented by yellow and red dots on the map.

Hover mouse over dot to see the name of the station.

Then click to see weather observations and forecasts.

To change the map : click on the green buttons with a black cross to zoom in, on the green button with a dash to zoom out, or on the green arrows for adjacent maps.


METAR-TAF: